createdAt,value
2023-01-15T00:01:30.588Z,25.80
2023-01-15T00:04:32.627Z,26.00
2023-01-15T00:07:34.884Z,25.40
2023-01-15T00:10:36.965Z,25.50
2023-01-15T00:13:39.294Z,25.60
2023-01-15T00:16:41.372Z,25.90
2023-01-15T00:19:43.605Z,25.90
2023-01-15T00:22:45.647Z,25.60
2023-01-15T00:26:06.662Z,26.10
2023-01-15T00:29:08.645Z,26.20
2023-01-15T00:32:10.973Z,25.80
2023-01-15T00:35:19.204Z,26.00
2023-01-15T00:38:21.443Z,26.00
2023-01-15T00:41:23.901Z,25.80
2023-01-15T00:44:26.270Z,25.40
2023-01-15T00:47:28.384Z,25.40
2023-01-15T00:50:30.680Z,25.30
2023-01-15T00:53:33.161Z,25.30
2023-01-15T00:56:36.391Z,25.60
2023-01-15T00:59:38.347Z,25.50
2023-01-15T01:02:40.834Z,25.80
2023-01-15T01:05:42.933Z,25.60
2023-01-15T01:08:46.195Z,25.40
2023-01-15T01:11:50.045Z,25.70
2023-01-15T01:14:52.339Z,25.20
2023-01-15T01:17:54.295Z,25.10
2023-01-15T01:20:56.802Z,25.30
2023-01-15T01:23:59.956Z,25.20
2023-01-15T01:27:02.275Z,25.30
2023-01-15T01:30:04.726Z,25.30
2023-01-15T01:33:07.345Z,25.40
2023-01-15T01:36:09.366Z,25.20
2023-01-15T01:39:15.801Z,25.20
2023-01-15T01:42:18.534Z,25.20
2023-01-15T01:45:28.454Z,25.30
2023-01-15T01:48:34.374Z,24.90
2023-01-15T01:51:43.466Z,25.20
2023-01-15T01:54:47.228Z,25.50
2023-01-15T01:57:52.800Z,25.30
2023-01-15T02:00:54.979Z,25.20
2023-01-15T02:03:57.903Z,25.20
2023-01-15T02:07:01.266Z,25.40
2023-01-15T02:10:03.987Z,25.10
2023-01-15T02:13:21.401Z,24.90
2023-01-15T02:16:39.789Z,25.20
2023-01-15T02:19:44.554Z,25.50
2023-01-15T02:22:58.764Z,25.20
2023-01-15T02:26:18.901Z,25.00
2023-01-15T02:29:30.186Z,25.20
2023-01-15T02:32:38.817Z,25.40
2023-01-15T02:36:01.061Z,25.20
2023-01-15T02:39:07.160Z,25.00
2023-01-15T02:42:11.854Z,25.20
2023-01-15T02:45:17.925Z,24.80
2023-01-15T02:48:26.763Z,25.00
2023-01-15T02:51:38.527Z,24.60
2023-01-15T02:54:50.101Z,24.90
2023-01-15T02:57:55.135Z,24.90
2023-01-15T03:01:01.561Z,25.00
2023-01-15T03:04:22.120Z,25.70
2023-01-15T03:07:56.539Z,25.30
2023-01-15T03:11:12.425Z,25.40
2023-01-15T03:14:17.844Z,25.20
2023-01-15T03:17:24.345Z,25.40
2023-01-15T03:20:29.290Z,25.30
2023-01-15T03:23:35.271Z,25.20
2023-01-15T03:26:37.618Z,25.40
2023-01-15T03:29:44.914Z,25.70
2023-01-15T03:32:48.572Z,25.40
2023-01-15T03:35:53.368Z,25.00
2023-01-15T03:38:55.863Z,25.10
2023-01-15T03:42:09.908Z,25.40
2023-01-15T03:45:30.452Z,25.20
2023-01-15T03:48:43.152Z,24.90
2023-01-15T03:52:01.532Z,25.10
2023-01-15T03:55:23.513Z,25.10
2023-01-15T03:58:46.111Z,25.20
2023-01-15T04:01:49.346Z,25.40
2023-01-15T04:04:54.811Z,25.70
2023-01-15T04:07:58.463Z,25.60
2023-01-15T04:11:02.263Z,25.60
2023-01-15T04:14:04.952Z,25.90
2023-01-15T04:17:07.334Z,26.10
2023-01-15T04:20:10.885Z,26.40
2023-01-15T04:23:13.913Z,26.30
2023-01-15T04:26:16.711Z,26.30
2023-01-15T04:29:19.085Z,27.10
2023-01-15T04:32:21.243Z,27.70
2023-01-15T04:35:23.476Z,27.90
2023-01-15T04:38:25.507Z,27.50
2023-01-15T04:41:46.206Z,27.80
2023-01-15T04:44:48.242Z,27.40
2023-01-15T04:47:50.462Z,27.70
2023-01-15T04:50:52.901Z,27.70
2023-01-15T04:53:55.204Z,28.20
2023-01-15T04:56:57.211Z,28.70
2023-01-15T04:59:59.528Z,28.10
2023-01-15T05:03:01.601Z,28.10
2023-01-15T05:06:04.344Z,28.10
2023-01-15T05:09:06.861Z,28.50
2023-01-15T05:12:09.164Z,28.30
2023-01-15T05:15:11.171Z,27.90
2023-01-15T05:18:16.351Z,28.00
2023-01-15T05:21:24.195Z,28.10
2023-01-15T05:24:26.454Z,28.30
2023-01-15T05:27:28.404Z,28.60
2023-01-15T05:30:30.754Z,28.50
2023-01-15T05:33:32.726Z,28.50
2023-01-15T05:36:37.553Z,28.50
2023-01-15T05:39:39.599Z,29.00
2023-01-15T05:42:42.010Z,29.10
2023-01-15T05:45:44.064Z,29.10
2023-01-15T05:48:46.371Z,29.10
2023-01-15T05:51:49.411Z,29.60
2023-01-15T05:54:51.655Z,29.70
2023-01-15T05:57:53.770Z,30.00
2023-01-15T06:00:56.460Z,29.80
2023-01-15T06:03:59.872Z,30.60
2023-01-15T06:07:02.211Z,30.40
2023-01-15T06:10:04.847Z,31.40
2023-01-15T06:13:07.210Z,31.20
2023-01-15T06:16:13.266Z,30.80
2023-01-15T06:19:15.621Z,31.10
2023-01-15T06:22:18.286Z,31.50
2023-01-15T06:25:20.716Z,31.10
2023-01-15T06:28:22.685Z,31.10
2023-01-15T06:31:28.739Z,30.70
2023-01-15T06:34:30.894Z,31.30
2023-01-15T06:37:33.202Z,31.10
2023-01-15T06:40:35.180Z,30.50
2023-01-15T06:43:55.945Z,31.20
2023-01-15T06:47:16.381Z,31.10
2023-01-15T06:50:18.908Z,31.60
2023-01-15T06:53:21.974Z,31.40
2023-01-15T06:56:24.205Z,31.20
2023-01-15T06:59:26.224Z,31.30
2023-01-15T07:02:28.523Z,31.40
2023-01-15T07:05:30.736Z,31.10
2023-01-15T07:08:33.019Z,32.50
2023-01-15T07:11:35.122Z,31.50
2023-01-15T07:14:37.521Z,31.60
2023-01-15T07:17:39.502Z,31.00
2023-01-15T07:20:41.727Z,31.30
2023-01-15T07:23:43.887Z,30.90
2023-01-15T07:26:46.634Z,31.50
2023-01-15T07:29:49.770Z,31.20
2023-01-15T07:32:52.300Z,31.00
2023-01-15T07:36:16.265Z,31.80
2023-01-15T07:39:21.781Z,31.90
2023-01-15T07:42:42.626Z,32.30
2023-01-15T07:46:07.462Z,32.50
2023-01-15T07:49:31.811Z,31.50
2023-01-15T07:52:34.165Z,31.40
2023-01-15T07:55:36.357Z,31.40
2023-01-15T07:58:38.626Z,31.80
2023-01-15T08:01:40.717Z,31.40
2023-01-15T08:04:43.144Z,31.90
2023-01-15T08:07:45.408Z,31.90
2023-01-15T08:11:06.143Z,31.60
2023-01-15T08:14:28.784Z,31.00
2023-01-15T08:17:35.110Z,31.50
2023-01-15T08:20:37.584Z,31.40
2023-01-15T08:23:39.920Z,31.40
2023-01-15T08:26:41.887Z,31.80
2023-01-15T08:29:44.248Z,32.00
2023-01-15T08:32:46.323Z,31.90
2023-01-15T08:35:48.846Z,31.60
2023-01-15T08:38:50.834Z,31.50
2023-01-15T08:41:53.571Z,32.00
2023-01-15T08:44:55.636Z,32.00
2023-01-15T08:47:58.335Z,31.50
2023-01-15T08:51:07.302Z,31.70
2023-01-15T08:54:09.549Z,33.70
2023-01-15T08:57:13.628Z,32.00
2023-01-15T09:00:17.561Z,32.30
2023-01-15T09:03:19.826Z,31.90
2023-01-15T09:06:22.069Z,31.70
2023-01-15T09:09:24.051Z,32.20
2023-01-15T09:12:27.428Z,32.20
2023-01-15T09:15:30.746Z,31.80
2023-01-15T09:18:33.357Z,31.70
2023-01-15T09:21:35.369Z,31.60
2023-01-15T09:24:37.703Z,31.80
2023-01-15T09:27:39.753Z,31.60
2023-01-15T09:30:42.109Z,31.50
2023-01-15T09:33:44.180Z,31.40
2023-01-15T09:36:46.625Z,31.80
2023-01-15T09:39:49.199Z,32.60
2023-01-15T09:43:05.540Z,32.80
2023-01-15T09:46:39.331Z,32.00
2023-01-15T09:50:06.419Z,31.40
2023-01-15T09:53:08.375Z,31.50
2023-01-15T09:56:25.497Z,30.40
2023-01-15T09:59:36.308Z,29.60
2023-01-15T10:02:51.335Z,29.60
2023-01-15T10:06:20.004Z,29.30
2023-01-15T10:09:31.362Z,29.50
2023-01-15T10:12:36.652Z,29.50
2023-01-15T10:15:47.475Z,29.50
2023-01-15T10:18:49.742Z,29.60
2023-01-15T10:22:06.865Z,29.70
2023-01-15T10:25:16.716Z,29.90
2023-01-15T10:28:25.033Z,29.30
2023-01-15T10:31:53.113Z,29.10
2023-01-15T10:35:26.660Z,28.90
2023-01-15T10:38:59.967Z,28.50
2023-01-15T10:42:15.230Z,28.60
2023-01-15T10:45:34.326Z,28.10
2023-01-15T10:48:44.205Z,28.10
2023-01-15T10:51:47.723Z,28.10
2023-01-15T10:55:13.480Z,28.10
2023-01-15T10:58:45.453Z,28.10
2023-01-15T11:01:53.845Z,27.80
2023-01-15T11:04:56.106Z,27.60
2023-01-15T11:08:36.940Z,27.60
2023-01-15T11:12:01.903Z,27.50
2023-01-15T11:15:40.331Z,27.50
2023-01-15T11:19:22.471Z,27.50
2023-01-15T11:22:27.297Z,27.40
2023-01-15T11:25:31.757Z,27.20
2023-01-15T11:28:46.450Z,27.30
2023-01-15T11:31:48.442Z,27.30
2023-01-15T11:34:55.664Z,27.20
2023-01-15T11:38:13.555Z,27.20
2023-01-15T11:41:25.171Z,27.30
2023-01-15T11:44:46.257Z,27.00
2023-01-15T11:48:14.338Z,27.10
2023-01-15T11:51:17.461Z,26.80
2023-01-15T11:54:20.408Z,26.70
2023-01-15T11:57:32.326Z,26.60
2023-01-15T12:00:38.585Z,26.70
2023-01-15T12:03:41.251Z,26.60
2023-01-15T12:06:43.808Z,26.50
2023-01-15T12:10:01.122Z,26.70
2023-01-15T12:13:39.984Z,26.60
2023-01-15T12:16:51.168Z,26.70
2023-01-15T12:20:20.196Z,26.80
2023-01-15T12:23:31.328Z,26.70
2023-01-15T12:26:39.743Z,26.80
2023-01-15T12:29:51.869Z,26.90
2023-01-15T12:33:19.527Z,26.70
2023-01-15T12:36:33.834Z,26.80
2023-01-15T12:39:49.103Z,26.50
2023-01-15T12:43:12.635Z,26.60
2023-01-15T12:46:31.536Z,26.60
2023-01-15T12:50:00.549Z,26.50
2023-01-15T12:53:13.501Z,26.50
2023-01-15T12:56:24.835Z,26.30
2023-01-15T12:59:37.102Z,26.30
2023-01-15T13:02:57.023Z,26.70
2023-01-15T13:06:09.243Z,26.50
2023-01-15T13:09:38.409Z,26.60
2023-01-15T13:12:40.882Z,26.70
2023-01-15T13:15:52.669Z,27.00
2023-01-15T13:19:32.962Z,26.90
2023-01-15T13:23:09.329Z,26.60
2023-01-15T13:26:41.962Z,26.70
2023-01-15T13:30:04.564Z,26.50
2023-01-15T13:33:25.947Z,26.50
2023-01-15T13:36:42.059Z,26.80
2023-01-15T13:39:47.096Z,26.70
2023-01-15T13:42:50.784Z,26.60
2023-01-15T13:45:53.681Z,26.90
2023-01-15T13:48:56.117Z,26.90
2023-01-15T13:52:04.126Z,26.90
2023-01-15T13:55:24.482Z,27.00
2023-01-15T13:58:29.357Z,26.60
2023-01-15T14:01:37.141Z,26.80
2023-01-15T14:04:40.210Z,26.60
2023-01-15T14:07:42.237Z,26.60
2023-01-15T14:10:44.903Z,26.80
2023-01-15T14:14:08.863Z,26.60
2023-01-15T14:17:42.024Z,26.60
2023-01-15T14:21:27.623Z,26.40
2023-01-15T14:25:02.645Z,26.50
2023-01-15T14:28:40.735Z,26.40
2023-01-15T14:32:02.041Z,26.50
2023-01-15T14:35:10.959Z,26.20
2023-01-15T14:38:18.357Z,26.30
2023-01-15T14:41:30.754Z,26.60
2023-01-15T14:44:34.219Z,27.00
2023-01-15T14:47:51.441Z,26.60
2023-01-15T14:50:54.283Z,26.60
2023-01-15T14:54:07.672Z,26.30
2023-01-15T14:57:11.118Z,26.30
2023-01-15T15:00:19.522Z,26.20
2023-01-15T15:03:33.713Z,26.30
2023-01-15T15:06:59.642Z,26.40
2023-01-15T15:10:13.735Z,26.20
2023-01-15T15:13:30.955Z,26.30
2023-01-15T15:16:40.933Z,26.20
2023-01-15T15:19:50.148Z,26.30
2023-01-15T15:22:58.329Z,26.80
2023-01-15T15:26:07.232Z,26.80
2023-01-15T15:29:09.797Z,26.80
2023-01-15T15:32:17.044Z,26.60
2023-01-15T15:35:29.324Z,27.00
2023-01-15T15:38:31.472Z,26.90
2023-01-15T15:41:55.860Z,26.90
2023-01-15T15:45:18.864Z,26.70
2023-01-15T15:48:53.178Z,26.80
2023-01-15T15:51:55.734Z,26.80
2023-01-15T15:55:05.915Z,27.50
2023-01-15T15:58:13.551Z,27.00
2023-01-15T16:01:16.397Z,26.80
2023-01-15T16:04:20.278Z,26.90
2023-01-15T16:07:33.570Z,26.80
2023-01-15T16:10:36.038Z,26.60
2023-01-15T16:13:43.035Z,26.90
2023-01-15T16:16:48.066Z,26.80
2023-01-15T16:19:50.986Z,26.60
2023-01-15T16:23:05.359Z,26.70
2023-01-15T16:26:21.581Z,26.50
2023-01-15T16:29:28.351Z,26.60
2023-01-15T16:32:35.803Z,26.70
2023-01-15T16:35:38.067Z,26.60
2023-01-15T16:38:42.837Z,26.80
2023-01-15T16:41:45.229Z,26.90
2023-01-15T16:45:21.726Z,27.70
2023-01-15T16:48:31.062Z,27.40
2023-01-15T16:51:36.342Z,27.60
2023-01-15T16:54:38.507Z,27.50
2023-01-15T16:57:42.352Z,27.60
2023-01-15T17:00:56.520Z,27.70
2023-01-15T17:03:58.877Z,27.80
2023-01-15T17:07:07.409Z,27.40
2023-01-15T17:10:24.344Z,27.70
2023-01-15T17:13:37.875Z,27.80
2023-01-15T17:16:40.236Z,28.70
2023-01-15T17:19:42.970Z,28.40
2023-01-15T17:22:47.348Z,28.20
2023-01-15T17:25:49.578Z,29.00
2023-01-15T17:28:51.936Z,28.90
2023-01-15T17:31:53.968Z,28.90
2023-01-15T17:34:56.856Z,28.60
2023-01-15T17:37:59.321Z,28.50
2023-01-15T17:41:03.559Z,28.50
2023-01-15T17:44:06.832Z,28.80
2023-01-15T17:47:09.461Z,28.40
2023-01-15T17:50:12.628Z,28.30
2023-01-15T17:53:15.037Z,28.70
2023-01-15T17:56:35.894Z,29.50
2023-01-15T17:59:56.625Z,29.30
2023-01-15T18:03:17.557Z,29.10
2023-01-15T18:06:22.142Z,29.00
2023-01-15T18:09:24.410Z,28.30
2023-01-15T18:12:26.710Z,28.60
2023-01-15T18:15:29.466Z,28.60
2023-01-15T18:18:31.971Z,28.00
2023-01-15T18:21:37.605Z,28.10
2023-01-15T18:24:40.528Z,28.10
2023-01-15T18:27:43.479Z,27.60
2023-01-15T18:30:46.590Z,27.30
2023-01-15T18:33:48.642Z,27.00
2023-01-15T18:36:51.159Z,27.00
2023-01-15T18:39:53.122Z,28.00
2023-01-15T18:43:13.781Z,27.30
2023-01-15T18:46:34.227Z,27.70
2023-01-15T18:49:36.701Z,27.60
2023-01-15T18:52:51.563Z,27.90
2023-01-15T18:56:02.878Z,27.50
2023-01-15T18:59:13.369Z,27.50
2023-01-15T19:02:20.519Z,27.20
2023-01-15T19:05:22.828Z,27.30
2023-01-15T19:08:25.198Z,27.00
2023-01-15T19:11:28.809Z,27.30
2023-01-15T19:14:50.115Z,26.80
2023-01-15T19:18:12.070Z,27.60
2023-01-15T19:21:17.833Z,27.70
2023-01-15T19:24:20.579Z,27.60
2023-01-15T19:27:23.918Z,27.50
2023-01-15T19:30:26.981Z,27.10
2023-01-15T19:33:29.488Z,27.40
2023-01-15T19:36:31.553Z,28.10
2023-01-15T19:39:34.313Z,27.60
2023-01-15T19:42:55.139Z,27.00
2023-01-15T19:46:17.763Z,27.20
2023-01-15T19:49:41.352Z,26.90
2023-01-15T19:52:44.849Z,27.80
2023-01-15T19:55:47.208Z,27.90
2023-01-15T19:58:50.755Z,27.60
2023-01-15T20:01:53.096Z,27.40
2023-01-15T20:04:55.557Z,27.90
2023-01-15T20:07:58.329Z,28.10
2023-01-15T20:11:00.873Z,28.00
2023-01-15T20:14:02.932Z,28.00
2023-01-15T20:17:05.564Z,28.20
2023-01-15T20:20:09.121Z,27.50
2023-01-15T20:23:11.462Z,27.30
2023-01-15T20:26:14.726Z,26.60
2023-01-15T20:29:18.314Z,26.30
2023-01-15T20:32:21.271Z,26.50
2023-01-15T20:35:27.097Z,26.50
2023-01-15T20:38:30.228Z,26.40
2023-01-15T20:41:51.339Z,27.20
2023-01-15T20:44:53.503Z,27.00
2023-01-15T20:48:11.669Z,26.90
2023-01-15T20:51:15.816Z,26.20
2023-01-15T20:54:20.388Z,26.00
2023-01-15T20:57:22.837Z,25.50
2023-01-15T21:00:25.793Z,25.40
2023-01-15T21:03:28.053Z,25.70
2023-01-15T21:06:30.665Z,25.80
2023-01-15T21:09:34.055Z,26.10
2023-01-15T21:12:36.909Z,27.00
2023-01-15T21:15:38.990Z,26.10
2023-01-15T21:18:44.977Z,26.00
2023-01-15T21:21:47.429Z,25.50
2023-01-15T21:24:51.513Z,25.20
2023-01-15T21:27:53.716Z,25.70
2023-01-15T21:30:58.728Z,25.80
2023-01-15T21:34:02.008Z,25.90
2023-01-15T21:37:04.292Z,25.70
2023-01-15T21:40:07.169Z,25.70
2023-01-15T21:43:29.421Z,25.70
2023-01-15T21:46:31.586Z,25.90
2023-01-15T21:49:35.302Z,25.80
2023-01-15T21:52:37.334Z,25.60
2023-01-15T21:55:39.592Z,25.30
2023-01-15T21:58:41.680Z,25.50
2023-01-15T22:01:44.160Z,25.60
2023-01-15T22:04:47.030Z,26.30
2023-01-15T22:07:49.334Z,26.00
2023-01-15T22:10:52.925Z,26.20
2023-01-15T22:13:55.293Z,26.30
2023-01-15T22:16:59.972Z,26.00
2023-01-15T22:20:02.755Z,25.50
2023-01-15T22:23:04.849Z,25.30
2023-01-15T22:26:20.057Z,25.20
2023-01-15T22:29:28.134Z,25.00
2023-01-15T22:32:30.590Z,25.20
2023-01-15T22:35:32.664Z,25.30
2023-01-15T22:38:35.319Z,25.30
2023-01-15T22:41:55.731Z,25.10
2023-01-15T22:45:00.165Z,24.70
2023-01-15T22:48:02.252Z,25.20
2023-01-15T22:51:04.899Z,24.70
2023-01-15T22:54:06.891Z,24.60
2023-01-15T22:57:09.158Z,24.70
2023-01-15T23:00:11.574Z,24.50
2023-01-15T23:03:14.669Z,24.20
2023-01-15T23:06:18.978Z,24.30
2023-01-15T23:09:23.029Z,24.00
2023-01-15T23:12:24.999Z,23.80
2023-01-15T23:15:27.424Z,23.80
2023-01-15T23:18:34.568Z,23.90
2023-01-15T23:21:36.971Z,23.60
2023-01-15T23:24:39.030Z,23.60
2023-01-15T23:27:41.361Z,23.90
2023-01-15T23:30:43.657Z,24.50
2023-01-15T23:33:45.966Z,24.10
2023-01-15T23:36:47.984Z,24.00
2023-01-15T23:39:50.267Z,24.10
2023-01-15T23:43:10.715Z,23.70
2023-01-15T23:46:34.938Z,23.80
2023-01-15T23:49:37.229Z,24.00
2023-01-15T23:52:39.517Z,24.40
2023-01-15T23:55:41.550Z,24.10
2023-01-15T23:58:45.142Z,24.10
